Time;durP1;ratioP1;P1;durP2;ratioP2;P2;SDS_P1;SDS_P2;PMS_P1;PMS_P2;Temp;Humidity;BMP_temperature;BMP_pressure;BME280_temperature;BME280_humidity;BME280_pressure;Samples;Min_cycle;Max_cycle;Signal;HPM_P1;HPM_P2
2021/12/13 00:01:50;;;;;;;29.77;25.10;;;;;;;10.74;86.19;102323.81;3579040;40;20337;-63
2021/12/13 00:04:37;;;;;;;30.83;24.83;;;;;;;10.48;86.15;102273.75;3575077;40;20083;-62
2021/12/13 00:07:16;;;;;;;29.30;24.90;;;;;;;10.74;85.93;102321.13;3574300;40;20394;-63
2021/12/13 00:09:51;;;;;;;34.42;26.10;;;;;;;10.73;85.92;102310.47;3579452;40;20052;-63
2021/12/13 00:12:29;;;;;;;32.40;25.48;;;;;;;10.74;86.14;102318.44;3579492;40;20059;-63
2021/12/13 00:14:58;;;;;;;33.35;25.77;;;;;;;10.74;85.88;102310.38;3569725;40;20053;-63
2021/12/13 00:17:38;;;;;;;34.45;25.17;;;;;;;10.73;86.11;102313.16;3577010;40;20091;-63
2021/12/13 00:20:19;;;;;;;27.10;23.60;;;;;;;10.71;85.92;102315.88;3575450;40;20379;-63
2021/12/13 00:22:52;;;;;;;28.60;24.85;;;;;;;10.70;86.07;102314.13;3576301;40;20096;-63
2021/12/13 00:25:27;;;;;;;29.05;24.27;;;;;;;10.70;85.81;102322.19;3577803;40;20123;-63
2021/12/13 00:28:05;;;;;;;25.75;22.33;;;;;;;10.67;85.77;102317.81;3579497;40;20064;-63
2021/12/13 00:31:14;;;;;;;26.63;23.23;;;;;;;10.67;86.30;102323.19;3575715;40;20316;-63
2021/12/13 00:34:05;;;;;;;29.52;23.33;;;;;;;10.65;86.09;102314.28;3553726;40;20387;-63
2021/12/13 00:36:52;;;;;;;30.00;22.98;;;;;;;10.64;86.04;102322.44;3576254;40;20061;-63
2021/12/13 00:39:31;;;;;;;27.83;21.95;;;;;;;10.63;86.05;102315.31;3574418;40;20370;-63
2021/12/13 00:41:57;;;;;;;29.05;22.00;;;;;;;10.62;86.04;102321.59;3573770;40;20063;-63
2021/12/13 00:44:47;;;;;;;29.33;21.88;;;;;;;10.62;85.87;102333.22;3575992;40;20048;-63
2021/12/13 00:47:36;;;;;;;27.48;21.70;;;;;;;10.61;85.75;102334.19;3573409;40;20057;-63
2021/12/13 00:50:09;;;;;;;29.67;22.88;;;;;;;10.60;85.95;102331.56;3572547;40;20419;-63
2021/12/13 00:52:38;;;;;;;29.70;23.55;;;;;;;10.59;85.89;102332.47;3574630;40;20167;-63
2021/12/13 00:55:34;;;;;;;29.88;23.25;;;;;;;10.38;86.14;102300.09;3573902;40;20391;-63
2021/12/13 00:58:15;;;;;;;29.58;23.50;;;;;;;10.59;85.97;102336.06;3575743;40;20068;-63
2021/12/13 01:00:43;;;;;;;28.42;21.95;;;;;;;10.55;85.79;102328.16;3580011;40;20052;-63
2021/12/13 01:03:27;;;;;;;29.83;24.00;;;;;;;10.55;86.33;102333.53;3575798;40;20052;-63
2021/12/13 01:06:50;;;;;;;30.52;22.88;;;;;;;10.55;85.76;102342.47;3572355;40;20060;-63
2021/12/13 01:10:07;;;;;;;28.48;21.83;;;;;;;10.54;85.84;102337.16;3576747;40;20597;-63
2021/12/13 01:12:34;;;;;;;32.03;23.55;;;;;;;10.51;85.94;102353.41;3557932;40;20388;-63
2021/12/13 01:15:11;;;;;;;31.88;23.15;;;;;;;10.49;85.98;102345.38;3573853;40;20056;-63
2021/12/13 01:18:17;;;;;;;29.70;22.30;;;;;;;9.72;85.49;102223.69;3574197;40;20417;-63
2021/12/13 01:21:14;;;;;;;30.20;23.45;;;;;;;10.48;85.93;102345.47;3574431;40;20048;-63
2021/12/13 01:23:51;;;;;;;32.67;23.20;;;;;;;10.42;86.07;102339.38;3575020;40;20051;-63
2021/12/13 01:26:37;;;;;;;33.72;23.52;;;;;;;10.41;86.08;102343.00;3572524;40;20052;-63
2021/12/13 01:29:27;;;;;;;34.35;23.80;;;;;;;10.41;86.17;102348.38;3574905;40;20109;-63
2021/12/13 01:32:11;;;;;;;34.42;24.00;;;;;;;10.25;85.57;102330.16;3561576;40;20063;-63
2021/12/13 01:34:38;;;;;;;31.05;22.95;;;;;;;10.39;85.50;102352.03;3567570;40;20380;-63
2021/12/13 01:37:13;;;;;;;35.60;24.27;;;;;;;10.31;85.92;102338.91;3580898;40;20084;-63
2021/12/13 01:39:53;;;;;;;31.27;23.48;;;;;;;10.39;85.91;102357.41;3568324;40;20051;-62
2021/12/13 01:42:28;;;;;;;38.22;24.92;;;;;;;10.14;85.92;102322.47;3577051;40;20185;-63
2021/12/13 01:45:01;;;;;;;30.77;23.33;;;;;;;10.38;86.14;102364.63;3578913;40;20059;-64
2021/12/13 01:47:35;;;;;;;33.25;24.30;;;;;;;10.38;85.54;102361.06;3581101;40;20048;-63
2021/12/13 01:50:18;;;;;;;34.72;24.65;;;;;;;10.37;85.84;102365.56;3577680;40;20063;-63
2021/12/13 01:52:49;;;;;;;35.22;25.08;;;;;;;10.37;85.45;102368.25;3579166;40;20057;-64
2021/12/13 01:55:22;;;;;;;36.75;25.10;;;;;;;10.37;85.90;102372.72;3581700;40;20408;-63
2021/12/13 01:58:07;;;;;;;35.88;26.13;;;;;;;10.33;85.50;102366.56;3584187;40;20088;-63
2021/12/13 02:04:05;;;;;;;33.88;25.58;;;;;;;10.35;85.32;102369.22;3579217;40;20061;-64
2021/12/13 02:06:41;;;;;;;36.60;26.15;;;;;;;10.33;86.06;102368.41;3577377;40;20137;-64
2021/12/13 02:09:23;;;;;;;37.78;26.15;;;;;;;10.32;85.57;102378.28;3578677;40;20053;-64
2021/12/13 02:11:57;;;;;;;36.70;26.85;;;;;;;10.32;85.82;102378.28;3581167;40;20299;-64
2021/12/13 02:14:29;;;;;;;38.63;26.23;;;;;;;10.18;85.78;102357.25;3575915;40;20079;-64
2021/12/13 02:17:13;;;;;;;37.88;26.58;;;;;;;10.32;85.67;102372.91;3569667;40;20056;-64
2021/12/13 02:20:00;;;;;;;;;;;;;;;10.32;85.78;102364.84;3577115;40;20096;-64
2021/12/13 02:22:51;;;;;;;40.67;26.50;;;;;;;9.96;85.95;102302.53;3577490;40;19940;-63
2021/12/13 02:25:30;;;;;;;36.42;26.88;;;;;;;10.16;85.52;102326.84;3576002;40;20383;-64
2021/12/13 02:28:14;;;;;;;35.97;26.42;;;;;;;10.27;85.77;102356.03;3576831;40;20058;-63
2021/12/13 02:30:56;;;;;;;39.28;27.55;;;;;;;10.28;85.63;102357.81;3579007;40;20126;-64
2021/12/13 02:33:50;;;;;;;41.95;29.15;;;;;;;10.28;85.50;102352.44;3578818;40;20049;-63
2021/12/13 02:36:24;;;;;;;38.83;28.23;;;;;;;10.25;85.51;102357.03;3575821;40;20318;-63
2021/12/13 02:38:56;;;;;;;39.67;27.45;;;;;;;10.22;85.55;102372.31;3573602;40;20078;-63
2021/12/13 02:41:27;;;;;;;37.97;27.52;;;;;;;10.23;85.75;102371.38;3578983;40;20416;-63
2021/12/13 02:44:04;;;;;;;38.08;27.02;;;;;;;10.22;86.10;102369.63;3578104;40;20723;-63
2021/12/13 02:46:31;;;;;;;39.80;28.42;;;;;;;9.84;85.66;102309.19;3577251;40;20060;-66
2021/12/13 02:49:04;;;;;;;35.63;27.88;;;;;;;10.20;85.47;102366.09;3561911;40;20053;-63
2021/12/13 02:51:45;;;;;;;39.85;27.30;;;;;;;10.21;85.51;102373.25;3576744;40;20052;-63
2021/12/13 02:54:25;;;;;;;37.17;27.30;;;;;;;10.20;86.20;102367.91;3574536;40;20342;-63
2021/12/13 02:57:15;;;;;;;36.85;26.88;;;;;;;10.18;86.08;102377.84;3576857;40;20135;-63
2021/12/13 03:00:07;;;;;;;41.15;27.55;;;;;;;10.17;85.96;102381.47;3575661;40;20284;-63
2021/12/13 03:02:42;;;;;;;37.38;27.40;;;;;;;10.17;86.20;102368.91;3579119;40;20063;-64
2021/12/13 03:05:15;;;;;;;35.83;26.90;;;;;;;10.16;85.73;102366.28;3575136;40;20079;-63
2021/12/13 03:07:49;;;;;;;39.25;27.42;;;;;;;10.15;85.52;102364.53;3574369;40;20063;-63
2021/12/13 03:10:28;;;;;;;38.42;27.48;;;;;;;10.12;86.04;102370.03;3578053;40;20055;-63
2021/12/13 03:12:54;;;;;;;37.00;26.67;;;;;;;10.09;85.63;102364.75;3578540;40;20063;-63
2021/12/13 03:15:28;;;;;;;39.25;26.90;;;;;;;10.10;85.68;102355.75;3574128;40;20060;-63
2021/12/13 03:18:11;;;;;;;40.58;27.92;;;;;;;10.14;85.70;102368.13;3575411;40;20423;-63
2021/12/13 03:21:06;;;;;;;39.25;28.40;;;;;;;10.12;85.68;102361.97;3581241;40;20056;-63
2021/12/13 03:24:01;;;;;;;39.58;27.77;;;;;;;10.10;85.28;102371.88;3573730;40;20326;-63
2021/12/13 03:26:57;;;;;;;41.00;26.77;;;;;;;10.10;85.67;102363.81;3577878;40;20057;-63
2021/12/13 03:29:51;;;;;;;38.35;27.33;;;;;;;10.10;85.96;102369.19;3608569;22;20044;-65
2021/12/13 03:32:19;;;;;;;35.75;26.92;;;;;;;10.06;85.68;102362.19;3581759;40;20383;-64
2021/12/13 03:35:09;;;;;;;37.83;27.30;;;;;;;10.03;85.88;102357.78;3583218;40;20052;-65
2021/12/13 03:37:36;;;;;;;39.90;26.77;;;;;;;10.08;85.74;102371.03;3583624;40;20307;-64
2021/12/13 03:40:17;;;;;;;38.08;27.30;;;;;;;10.07;85.18;102364.78;3575267;40;20115;-64
2021/12/13 03:42:54;;;;;;;36.30;25.85;;;;;;;10.07;85.59;102374.66;3575979;40;20064;-65
2021/12/13 03:45:45;;;;;;;40.35;27.02;;;;;;;10.07;85.48;102374.66;3582408;40;20092;-64
2021/12/13 03:48:15;;;;;;;39.17;26.58;;;;;;;10.08;85.18;102371.91;3571889;40;20122;-65
2021/12/13 03:50:51;;;;;;;36.15;25.35;;;;;;;10.08;85.46;102371.91;3578936;40;20352;-65
2021/12/13 03:53:25;;;;;;;37.50;27.17;;;;;;;10.07;85.03;102364.78;3581947;40;20060;-64
2021/12/13 03:56:02;;;;;;;39.30;25.95;;;;;;;10.07;85.56;102375.53;3576547;40;20053;-65
2021/12/13 03:58:35;;;;;;;36.33;26.20;;;;;;;10.07;85.62;102374.66;3567634;40;20114;-65
2021/12/13 04:01:16;;;;;;;35.33;25.23;;;;;;;10.05;85.64;102374.69;3578221;40;20057;-64
2021/12/13 04:03:44;;;;;;;38.05;24.75;;;;;;;10.04;85.60;102372.97;3579260;40;20064;-64
2021/12/13 04:06:17;;;;;;;37.42;24.35;;;;;;;10.06;84.82;102376.47;3575513;40;20048;-65
2021/12/13 04:08:52;;;;;;;37.67;25.42;;;;;;;10.06;84.64;102373.78;3577928;40;20080;-65
2021/12/13 04:11:24;;;;;;;40.58;24.50;;;;;;;10.07;85.30;102371.97;3576588;40;20093;-64
2021/12/13 04:14:07;;;;;;;35.97;25.08;;;;;;;9.99;84.52;102357.00;3582179;40;20065;-64
2021/12/13 04:16:46;;;;;;;34.78;24.83;;;;;;;10.07;84.54;102363.91;3576132;40;20045;-64
2021/12/13 04:19:19;;;;;;;36.58;25.35;;;;;;;10.07;84.88;102366.59;3577705;40;20093;-65
2021/12/13 04:22:04;;;;;;;34.07;23.77;;;;;;;10.04;85.01;102374.78;3576705;40;20075;-65
2021/12/13 04:24:41;;;;;;;34.83;24.73;;;;;;;10.05;84.74;102376.50;3579828;40;20394;-65
2021/12/13 04:27:24;;;;;;;36.10;24.75;;;;;;;10.02;85.01;102369.44;3577938;40;20100;-63
2021/12/13 04:29:54;;;;;;;32.67;24.00;;;;;;;10.05;84.66;102381.88;3579332;40;20044;-65
2021/12/13 04:32:32;;;;;;;35.47;24.35;;;;;;;9.88;84.65;102356.50;3576986;40;20047;-64
2021/12/13 04:35:08;;;;;;;33.85;23.30;;;;;;;10.04;85.10;102382.84;3579296;40;20060;-65
2021/12/13 04:37:52;;;;;;;33.95;23.73;;;;;;;10.04;84.42;102375.66;3579428;40;20067;-65
2021/12/13 04:40:25;;;;;;;33.15;23.83;;;;;;;10.06;84.10;102378.28;3574856;40;20061;-63
2021/12/13 04:43:12;;;;;;;32.75;23.13;;;;;;;10.04;84.07;102380.16;3578865;40;20123;-64
2021/12/13 04:45:46;;;;;;;30.92;21.85;;;;;;;9.99;84.13;102378.50;3581677;40;20332;-63
2021/12/13 04:48:23;;;;;;;33.00;22.30;;;;;;;9.92;84.62;102359.94;3578685;40;20064;-66
2021/12/13 04:50:58;;;;;;;31.65;22.52;;;;;;;10.02;84.71;102382.88;3576408;40;20053;-64
2021/12/13 04:53:39;;;;;;;31.27;22.98;;;;;;;10.00;84.56;102384.75;3579161;40;20059;-64
2021/12/13 04:56:13;;;;;;;28.67;21.63;;;;;;;10.00;84.10;102384.75;3580124;40;20202;-63
2021/12/13 04:58:45;;;;;;;32.15;21.90;;;;;;;9.98;84.55;102374.03;3578304;40;20076;-64
2021/12/13 05:01:14;;;;;;;31.00;21.38;;;;;;;10.00;83.83;102374.88;3580112;40;20060;-64
2021/12/13 05:03:47;;;;;;;30.10;22.52;;;;;;;9.99;84.01;102365.06;3577528;40;20394;-63
2021/12/13 05:06:21;;;;;;;29.27;21.08;;;;;;;9.99;83.93;102370.44;3576713;40;20056;-63
2021/12/13 05:08:56;;;;;;;30.60;21.05;;;;;;;9.77;84.24;102340.75;3576807;40;20382;-64
2021/12/13 05:11:23;;;;;;;28.52;20.52;;;;;;;9.98;84.00;102365.09;3580003;40;20458;-64
2021/12/13 05:13:58;;;;;;;30.20;21.00;;;;;;;9.99;84.23;102370.44;3579603;40;20052;-64
2021/12/13 05:16:38;;;;;;;30.55;21.35;;;;;;;10.02;84.28;102387.38;3578361;40;20112;-65
2021/12/13 05:19:08;;;;;;;28.60;20.85;;;;;;;10.00;84.13;102379.38;3577196;40;20310;-64
2021/12/13 05:21:49;;;;;;;27.55;21.00;;;;;;;9.99;83.67;102381.19;3577655;40;20082;-64
2021/12/13 05:24:23;;;;;;;28.88;20.25;;;;;;;9.99;83.67;102383.00;3579804;40;20063;-65
2021/12/13 05:26:59;;;;;;;29.15;20.65;;;;;;;9.99;84.10;102383.88;3578162;40;20060;-64
2021/12/13 05:29:50;;;;;;;27.30;18.65;;;;;;;9.98;83.29;102382.09;3575193;40;20056;-64
2021/12/13 05:32:37;;;;;;;28.02;19.65;;;;;;;9.98;83.78;102379.41;3577836;40;20052;-65
2021/12/13 05:35:30;;;;;;;29.08;19.13;;;;;;;9.98;83.85;102378.53;3577599;40;20356;-65
2021/12/13 05:38:07;;;;;;;24.88;18.60;;;;;;;10.00;83.69;102382.94;3574292;40;20067;-65
2021/12/13 05:40:41;;;;;;;27.27;18.88;;;;;;;9.97;84.00;102383.03;3576979;40;20276;-65
2021/12/13 05:43:21;;;;;;;26.88;18.92;;;;;;;9.97;83.63;102385.72;3580013;40;20082;-65
2021/12/13 05:46:12;;;;;;;24.25;17.90;;;;;;;9.94;83.54;102376.91;3576194;40;20057;-64
2021/12/13 05:48:48;;;;;;;26.85;19.23;;;;;;;9.96;83.90;102381.28;3577154;40;20060;-64
2021/12/13 05:51:29;;;;;;;26.60;18.73;;;;;;;9.96;83.66;102383.09;3577918;40;20087;-64
2021/12/13 05:54:17;;;;;;;26.77;18.90;;;;;;;9.93;83.67;102378.72;3578406;40;20056;-65
2021/12/13 05:57:26;;;;;;;26.17;18.58;;;;;;;9.90;83.74;102373.44;3576962;40;20088;-64
2021/12/13 06:00:02;;;;;;;24.50;18.20;;;;;;;9.87;84.19;102380.72;3562998;40;20057;-64
2021/12/13 06:03:00;;;;;;;27.10;19.35;;;;;;;9.88;83.36;102386.03;3578093;40;20075;-64
2021/12/13 06:05:37;;;;;;;25.25;17.35;;;;;;;9.90;83.67;102392.25;3579907;40;20055;-64
2021/12/13 06:08:17;;;;;;;26.70;18.27;;;;;;;9.87;83.75;102394.16;3577488;40;20410;-65
2021/12/13 06:10:59;;;;;;;27.95;18.10;;;;;;;9.44;83.47;102309.66;3574632;40;20049;-64
2021/12/13 06:13:43;;;;;;;24.98;17.27;;;;;;;9.90;83.92;102394.94;3578521;40;20052;-64
2021/12/13 06:16:43;;;;;;;26.25;17.52;;;;;;;9.89;82.98;102393.16;3576568;40;20384;-64
2021/12/13 06:19:33;;;;;;;25.45;16.85;;;;;;;9.85;83.72;102396.88;3573974;40;20093;-65
2021/12/13 06:22:20;;;;;;;23.05;16.50;;;;;;;9.86;83.50;102387.88;3579254;40;20063;-63
2021/12/13 06:25:07;;;;;;;25.08;17.35;;;;;;;9.85;83.22;102396.88;3581882;40;20060;-64
2021/12/13 06:27:50;;;;;;;25.70;16.17;;;;;;;9.84;83.33;102403.19;3577574;40;20061;-65
2021/12/13 06:30:16;;;;;;;24.85;16.25;;;;;;;9.86;84.01;102408.50;3578401;40;20040;-64
2021/12/13 06:33:06;;;;;;;19.23;14.88;;;;;;;9.83;83.31;102409.50;3580413;40;20084;-64
2021/12/13 06:35:43;;;;;;;21.38;15.50;;;;;;;9.84;83.39;102411.25;3576737;40;20053;-64
2021/12/13 06:38:30;;;;;;;21.15;15.07;;;;;;;9.87;82.83;102407.59;3577070;40;20064;-64
2021/12/13 06:41:01;;;;;;;24.13;15.38;;;;;;;9.85;83.36;102410.31;3578146;40;20060;-63
2021/12/13 06:43:38;;;;;;;21.67;15.32;;;;;;;9.87;83.09;102411.16;3576158;40;20048;-64
2021/12/13 06:46:32;;;;;;;25.05;16.00;;;;;;;9.83;83.24;102412.19;3577373;40;20307;-63
2021/12/13 06:49:25;;;;;;;22.50;14.90;;;;;;;9.85;83.76;102421.06;3577884;40;20059;-63
2021/12/13 06:52:05;;;;;;;21.63;15.23;;;;;;;9.83;83.76;102417.56;3577139;40;20056;-63
2021/12/13 06:54:56;;;;;;;20.17;14.98;;;;;;;9.83;83.18;102414.88;3575877;40;20064;-64
2021/12/13 06:57:54;;;;;;;21.60;14.73;;;;;;;9.85;83.59;102428.25;3578505;40;20045;-65
2021/12/13 07:00:19;;;;;;;22.13;14.27;;;;;;;9.84;83.70;102422.00;3577419;40;20368;-64
2021/12/13 07:02:57;;;;;;;20.80;14.00;;;;;;;9.84;83.15;102427.38;3580763;40;20060;-64
2021/12/13 07:05:34;;;;;;;21.92;14.80;;;;;;;9.80;83.10;102424.81;3577908;40;20080;-64
2021/12/13 07:08:10;;;;;;;20.05;14.63;;;;;;;9.83;83.69;102428.31;3577285;40;20064;-63
2021/12/13 07:10:57;;;;;;;21.08;14.38;;;;;;;9.81;83.63;102430.16;3577962;40;20084;-63
2021/12/13 07:14:03;;;;;;;23.70;15.32;;;;;;;9.82;83.55;102431.03;3576608;40;20041;-63
2021/12/13 07:16:35;;;;;;;20.20;14.40;;;;;;;9.80;83.62;102431.09;3575424;40;20126;-64
2021/12/13 07:19:21;;;;;;;23.50;14.38;;;;;;;9.84;82.78;102431.88;3569797;40;20376;-65
2021/12/13 07:21:58;;;;;;;21.10;15.35;;;;;;;9.80;83.09;102431.09;3577889;40;20341;-64
2021/12/13 07:24:42;;;;;;;20.63;15.00;;;;;;;9.84;83.35;102437.25;3578604;40;20052;-64
2021/12/13 07:27:29;;;;;;;19.95;14.80;;;;;;;9.58;83.50;102401.38;3575514;40;20333;-64
2021/12/13 07:30:10;;;;;;;19.98;14.75;;;;;;;9.81;83.39;102448.94;3577958;40;20130;-64
2021/12/13 07:32:49;;;;;;;21.88;16.55;;;;;;;9.81;83.49;102438.22;3578698;40;20072;-63
2021/12/13 07:35:40;;;;;;;21.20;14.50;;;;;;;9.81;83.10;102448.94;3577307;40;20048;-64
2021/12/13 07:38:13;;;;;;;22.73;14.68;;;;;;;9.82;82.91;102452.50;3579769;40;20048;-63
2021/12/13 07:41:04;;;;;;;22.92;14.90;;;;;;;9.84;83.68;102451.53;3581289;40;20068;-64
2021/12/13 07:43:38;;;;;;;20.60;14.40;;;;;;;9.83;83.51;102452.47;3578852;40;20064;-63
2021/12/13 07:46:21;;;;;;;;;;;;;;;9.85;82.72;102450.59;3580928;40;20076;-63
2021/12/13 07:48:47;;;;;;;23.95;14.95;;;;;;;9.84;83.50;102451.53;3576844;40;19943;-64
2021/12/13 07:51:36;;;;;;;18.42;13.90;;;;;;;9.83;83.18;102452.47;3578292;40;20059;-64
2021/12/13 07:54:18;;;;;;;19.92;14.48;;;;;;;9.84;82.79;102454.22;3575115;40;20045;-65
2021/12/13 07:56:57;;;;;;;19.17;14.20;;;;;;;9.85;82.81;102458.66;3574079;40;20064;-64
2021/12/13 07:59:36;;;;;;;21.58;15.15;;;;;;;9.84;83.29;102462.28;3576806;40;20061;-64
2021/12/13 08:02:22;;;;;;;18.17;13.95;;;;;;;9.86;82.78;102467.59;3579182;40;20068;-64
2021/12/13 08:05:11;;;;;;;22.92;14.50;;;;;;;9.88;82.70;102477.38;3577466;40;20057;-65
2021/12/13 08:07:53;;;;;;;18.55;14.32;;;;;;;9.88;82.84;102465.75;3578613;40;20119;-64
2021/12/13 08:10:29;;;;;;;20.00;13.73;;;;;;;9.90;83.24;102456.72;3580240;40;20049;-64
2021/12/13 08:13:03;;;;;;;20.17;14.60;;;;;;;9.88;83.48;102461.25;3576476;40;20048;-64
2021/12/13 08:15:54;;;;;;;21.23;15.20;;;;;;;9.90;82.86;102467.47;3576914;40;20048;-64
2021/12/13 08:18:39;;;;;;;19.70;14.88;;;;;;;9.89;82.88;102465.69;3575436;40;20148;-65
2021/12/13 08:21:20;;;;;;;20.40;15.07;;;;;;;9.81;83.03;102448.94;3576628;40;20052;-64
2021/12/13 08:23:56;;;;;;;21.35;15.30;;;;;;;9.90;83.23;102475.53;3578978;40;20072;-64
2021/12/13 08:26:34;;;;;;;21.17;15.00;;;;;;;9.94;82.55;102473.59;3576734;40;20142;-64
2021/12/13 08:29:10;;;;;;;19.67;15.10;;;;;;;9.91;82.94;102462.97;3576033;40;20048;-64
2021/12/13 08:31:41;;;;;;;20.70;15.30;;;;;;;9.76;83.12;102446.41;3576194;40;20060;-65
2021/12/13 08:34:22;;;;;;;21.00;15.63;;;;;;;9.92;82.84;102470.94;3579316;40;20383;-65
2021/12/13 08:36:50;;;;;;;19.50;14.73;;;;;;;9.95;82.30;102473.53;3577745;40;20071;-64
2021/12/13 08:39:37;;;;;;;21.27;15.23;;;;;;;9.95;82.69;102462.78;3578980;40;20048;-64
2021/12/13 08:42:12;;;;;;;19.75;15.25;;;;;;;9.95;82.30;102467.28;3578011;40;20055;-65
2021/12/13 08:44:53;;;;;;;16.85;14.10;;;;;;;9.95;82.87;102468.16;3576480;40;20075;-64
2021/12/13 08:47:42;;;;;;;19.83;14.10;;;;;;;9.97;82.23;102474.38;3581252;40;20056;-65
2021/12/13 08:50:18;;;;;;;18.70;14.68;;;;;;;9.96;82.33;102464.56;3577483;40;20061;-64
2021/12/13 08:52:48;;;;;;;18.17;13.52;;;;;;;9.96;82.09;102464.56;3578689;40;20060;-64
2021/12/13 08:55:26;;;;;;;21.48;15.05;;;;;;;9.99;81.92;102464.47;3579046;40;20047;-64
2021/12/13 08:58:17;;;;;;;21.20;14.55;;;;;;;9.97;82.60;102471.69;3580163;40;20061;-65
2021/12/13 09:01:09;;;;;;;16.90;13.88;;;;;;;10.02;81.87;102476.03;3578614;40;20067;-64
2021/12/13 09:03:48;;;;;;;19.05;14.25;;;;;;;9.98;82.25;102475.25;3570797;40;20055;-65
2021/12/13 09:06:16;;;;;;;22.90;16.27;;;;;;;10.00;82.21;102474.28;3575629;40;20056;-63
2021/12/13 09:09:17;;;;;;;20.33;13.30;;;;;;;10.03;81.47;102480.50;3576207;40;20066;-66
2021/12/13 09:11:57;;;;;;;18.25;13.93;;;;;;;10.04;81.54;102480.44;3580738;40;20049;-65
2021/12/13 09:14:25;;;;;;;19.50;13.82;;;;;;;10.03;81.36;102484.06;3577222;40;20041;-64
2021/12/13 09:17:21;;;;;;;17.77;13.55;;;;;;;10.04;81.29;102484.94;3575482;40;20048;-64
2021/12/13 09:20:10;;;;;;;17.88;13.30;;;;;;;10.04;81.49;102488.50;3578542;40;20058;-64
2021/12/13 09:23:05;;;;;;;19.27;13.50;;;;;;;10.05;81.31;102481.31;3576598;40;20054;-64
2021/12/13 09:25:45;;;;;;;18.58;13.40;;;;;;;10.05;81.38;102487.53;3576632;40;20461;-64
2021/12/13 09:28:31;;;;;;;20.30;15.10;;;;;;;9.99;81.97;102474.34;3628353;23;20870;-64
2021/12/13 09:31:08;;;;;;;17.73;13.48;;;;;;;10.07;81.97;102499.13;3565796;40;20101;-64
2021/12/13 09:33:40;;;;;;;19.77;13.50;;;;;;;9.77;81.78;102447.31;3580730;40;20399;-64
2021/12/13 09:36:15;;;;;;;16.85;13.10;;;;;;;10.07;81.71;102509.00;3582255;40;20051;-64
2021/12/13 09:39:17;;;;;;;16.50;12.80;;;;;;;10.08;81.74;102508.94;3581161;40;20084;-65
2021/12/13 09:42:06;;;;;;;16.60;13.02;;;;;;;10.04;81.22;102514.47;3582925;40;20068;-64
2021/12/13 09:45:02;;;;;;;16.23;11.63;;;;;;;10.10;81.33;102530.41;3582769;40;20055;-64
2021/12/13 09:47:43;;;;;;;16.88;12.20;;;;;;;10.13;81.00;102533.00;3580869;40;20045;-64
2021/12/13 09:50:22;;;;;;;13.48;10.82;;;;;;;10.09;81.11;102531.34;3580567;40;20112;-64
2021/12/13 09:52:59;;;;;;;18.05;12.95;;;;;;;10.12;80.73;102544.69;3582789;40;20115;-64
2021/12/13 09:55:38;;;;;;;15.52;13.48;;;;;;;10.10;80.86;102554.59;3584421;40;20063;-63
2021/12/13 09:58:17;;;;;;;12.10;10.02;;;;;;;10.11;81.16;102553.66;3584602;40;20052;-63
2021/12/13 10:01:00;;;;;;;14.52;11.07;;;;;;;10.10;81.48;102558.16;3584899;40;20122;-63
2021/12/13 10:04:03;;;;;;;13.65;10.88;;;;;;;10.13;80.65;102557.19;3584277;40;20059;-63
2021/12/13 10:06:54;;;;;;;13.25;10.30;;;;;;;9.96;81.16;102526.38;3583073;40;20119;-63
2021/12/13 10:09:51;;;;;;;13.40;10.43;;;;;;;10.13;80.65;102557.19;3584548;40;20114;-64
2021/12/13 10:12:39;;;;;;;13.40;9.88;;;;;;;10.11;80.54;102550.97;3584465;40;20056;-64
2021/12/13 10:15:27;;;;;;;12.20;9.27;;;;;;;10.11;80.60;102542.91;3583398;40;20058;-63
2021/12/13 10:18:07;;;;;;;12.57;9.57;;;;;;;10.12;80.91;102544.69;3584083;40;20164;-63
2021/12/13 10:21:02;;;;;;;9.43;8.25;;;;;;;10.12;81.00;102539.31;3584368;40;20056;-63
2021/12/13 10:23:37;;;;;;;10.85;8.27;;;;;;;10.10;80.87;102541.16;3584197;40;20052;-63
2021/12/13 10:26:08;;;;;;;10.15;8.18;;;;;;;10.11;80.58;102529.47;3583979;40;20056;-64
2021/12/13 10:28:41;;;;;;;8.98;8.07;;;;;;;10.14;80.82;102538.31;3583620;40;20064;-63
2021/12/13 10:31:20;;;;;;;11.13;8.40;;;;;;;10.15;80.48;102545.47;3584406;40;20059;-63
2021/12/13 10:33:47;;;;;;;11.30;8.32;;;;;;;10.17;80.58;102545.38;3583282;40;20125;-63
2021/12/13 10:36:15;;;;;;;8.68;7.78;;;;;;;10.18;80.23;102539.06;3585022;40;20080;-63
2021/12/13 10:38:49;;;;;;;9.43;7.95;;;;;;;10.18;79.96;102539.06;3584545;40;20082;-63
2021/12/13 10:41:43;;;;;;;8.98;7.47;;;;;;;10.21;79.88;102530.91;3582109;40;20427;-64
2021/12/13 10:44:16;;;;;;;8.50;7.35;;;;;;;10.21;79.82;102528.22;3581756;40;20060;-63
2021/12/13 10:46:48;;;;;;;9.70;7.53;;;;;;;10.16;79.74;102520.34;3583985;40;20068;-64
2021/12/13 10:49:24;;;;;;;9.32;7.78;;;;;;;10.20;80.38;102529.16;3584765;40;20053;-65
2021/12/13 10:52:07;;;;;;;10.15;7.28;;;;;;;10.20;79.92;102526.47;3580308;40;20379;-64
2021/12/13 10:54:43;;;;;;;7.78;6.97;;;;;;;10.22;79.63;102524.63;3584499;40;20051;-62
2021/12/13 10:57:20;;;;;;;8.27;7.40;;;;;;;9.98;79.47;102478.81;3585467;40;20059;-63
2021/12/13 10:59:49;;;;;;;12.98;10.40;;;;;;;10.25;79.68;102535.28;3584317;40;20047;-63
2021/12/13 11:02:29;;;;;;;8.40;7.57;;;;;;;10.26;79.60;102538.84;3584084;40;20119;-63
2021/12/13 11:05:10;;;;;;;8.82;6.57;;;;;;;10.28;79.10;102528.97;3579282;40;20122;-63
2021/12/13 11:07:37;;;;;;;9.13;7.55;;;;;;;10.28;79.17;102529.84;3584855;40;21885;-64
2021/12/13 11:10:11;;;;;;;7.20;6.45;;;;;;;10.30;79.40;102527.97;3584686;40;20342;-64
2021/12/13 11:12:46;;;;;;;10.80;8.27;;;;;;;10.30;79.01;102519.91;3583709;40;20122;-64
2021/12/13 11:15:20;;;;;;;8.25;7.43;;;;;;;10.28;78.91;102513.72;3584613;40;20045;-65
2021/12/13 11:17:46;;;;;;;10.00;7.30;;;;;;;10.06;78.89;102470.53;3584513;40;20122;-64
2021/12/13 11:20:22;;;;;;;6.32;5.72;;;;;;;10.34;78.30;102508.13;3583875;40;20306;-64
2021/12/13 11:22:50;;;;;;;10.80;6.60;;;;;;;10.33;78.57;102505.47;3583045;40;20056;-65
2021/12/13 11:25:28;;;;;;;7.65;6.50;;;;;;;10.31;79.08;102505.53;3584610;40;20296;-64
2021/12/13 11:27:55;;;;;;;8.15;6.40;;;;;;;10.31;78.79;102508.22;3581470;40;20134;-64
2021/12/13 11:30:29;;;;;;;8.00;6.90;;;;;;;10.34;78.63;102512.59;3582423;40;20097;-64
2021/12/13 11:32:57;;;;;;;6.53;5.82;;;;;;;10.32;78.87;102511.78;3584618;40;20080;-64
2021/12/13 11:36:07;;;;;;;7.00;6.22;;;;;;;10.35;78.47;102509.00;3582253;40;20310;-64
2021/12/13 11:39:29;;;;;;;7.43;6.55;;;;;;;10.37;78.92;102510.72;3584123;40;20064;-64
2021/12/13 11:42:16;;;;;;;9.02;6.10;;;;;;;10.37;78.30;102508.03;3581546;40;20121;-64
2021/12/13 11:45:31;;;;;;;7.80;6.25;;;;;;;10.37;78.20;102512.50;3583397;40;21199;-64
2021/12/13 11:48:33;;;;;;;7.13;5.95;;;;;;;10.36;78.27;102508.06;3583127;40;20100;-64
2021/12/13 11:51:36;;;;;;;5.88;5.30;;;;;;;10.38;77.72;102504.41;3583182;40;20126;-64
2021/12/13 11:55:14;;;;;;;8.90;5.75;;;;;;;10.36;78.56;102503.56;3585094;40;20048;-64
2021/12/13 11:58:36;;;;;;;6.30;5.50;;;;;;;9.64;78.48;102384.16;3539431;40;20066;-64
2021/12/13 12:01:43;;;;;;;7.38;5.95;;;;;;;10.36;78.37;102513.44;3575416;40;20053;-64
2021/12/13 12:05:04;;;;;;;6.65;6.00;;;;;;;10.34;77.60;102508.13;3582211;40;20052;-64
2021/12/13 12:07:53;;;;;;;5.50;5.00;;;;;;;10.33;77.92;102500.09;3584053;40;20092;-64
2021/12/13 12:11:11;;;;;;;6.70;6.00;;;;;;;10.36;78.19;102503.56;3582204;40;20064;-64
2021/12/13 12:14:03;;;;;;;11.05;7.30;;;;;;;10.33;77.68;102500.97;3584302;40;20067;-64
2021/12/13 12:16:34;;;;;;;8.55;6.10;;;;;;;10.35;78.02;102495.56;3581381;40;20372;-67
2021/12/13 12:19:00;;;;;;;7.88;5.75;;;;;;;10.37;77.74;102486.53;3583589;40;20048;-64
2021/12/13 12:21:34;;;;;;;5.75;5.20;;;;;;;10.38;77.82;102493.66;3583050;40;20106;-64
2021/12/13 12:24:12;;;;;;;8.45;5.70;;;;;;;10.40;78.44;102497.16;3583463;40;20052;-65